Time;durP1;ratioP1;P1;durP2;ratioP2;P2;SDS_P1;SDS_P2;PMS_P1;PMS_P2;Temp;Humidity;BMP_temperature;BMP_pressure;BME280_temperature;BME280_humidity;BME280_pressure;Samples;Min_cycle;Max_cycle;Signal;HPM_P1;HPM_P2
2019/04/28 00:00:11;;;;;;;2.4;1.55;;;;;;;6.03;71.35254;95449.85;;;;
2019/04/28 00:01:17;;;;;;;2.4;1.55;;;;;;;6.03;71.35254;95449.85;;;;
2019/04/28 00:02:20;;;;;;;2.4;1.55;;;;;;;6.03;71.35254;95449.85;;;;
2019/04/28 00:03:22;;;;;;;2.4;1.55;;;;;;;6.03;71.35254;95449.85;;;;
2019/04/28 00:04:23;;;;;;;2.4;1.55;;;;;;;6.03;71.35254;95449.85;;;;
2019/04/28 00:05:24;;;;;;;2.4;1.55;;;;;;;6.03;71.35254;95449.85;;;;
2019/04/28 00:06:25;;;;;;;2.900001;1.55;;;;;;;6.04;71.32227;95423.89;;;;
2019/04/28 00:07:26;;;;;;;2.900001;1.55;;;;;;;6.04;71.32227;95423.89;;;;
2019/04/28 00:08:27;;;;;;;2.900001;1.55;;;;;;;6.04;71.32227;95423.89;;;;
2019/04/28 00:09:28;;;;;;;2.900001;1.55;;;;;;;6.04;71.32227;95423.89;;;;
2019/04/28 00:10:29;;;;;;;2.900001;1.55;;;;;;;6.04;71.32227;95423.89;;;;
2019/04/28 00:11:30;;;;;;;2.900001;1.55;;;;;;;6.04;71.32227;95423.89;;;;
2019/04/28 00:12:31;;;;;;;2.900001;1.55;;;;;;;6.04;71.32227;95423.89;;;;
2019/04/28 00:13:33;;;;;;;2.900001;1.55;;;;;;;6.04;71.32227;95423.89;;;;
2019/04/28 00:14:34;;;;;;;2.900001;1.55;;;;;;;6.04;71.32227;95423.89;;;;
2019/04/28 00:15:35;;;;;;;2.900001;1.55;;;;;;;6.04;71.32227;95423.89;;;;
2019/04/28 00:16:36;;;;;;;3.7;1.8;;;;;;;6.11;70.94238;95441.22;;;;
2019/04/28 00:17:37;;;;;;;3.7;1.8;;;;;;;6.11;70.94238;95441.22;;;;
2019/04/28 00:18:38;;;;;;;3.7;1.8;;;;;;;6.11;70.94238;95441.22;;;;
2019/04/28 00:19:39;;;;;;;3.7;1.8;;;;;;;6.11;70.94238;95441.22;;;;
2019/04/28 00:21:19;;;;;;;3.7;1.8;;;;;;;6.11;70.94238;95441.22;;;;
2019/04/28 00:22:28;;;;;;;3.7;1.8;;;;;;;6.11;70.94238;95441.22;;;;
2019/04/28 00:23:39;;;;;;;3.7;1.8;;;;;;;6.11;70.94238;95441.22;;;;
2019/04/28 00:25:00;;;;;;;3.7;1.8;;;;;;;6.11;70.94238;95441.22;;;;
2019/04/28 00:26:11;;;;;;;3.7;1.8;;;;;;;6.11;70.94238;95441.22;;;;
2019/04/28 00:27:15;;;;;;;2.1;1.6;;;;;;;5.95;70.80859;95431.81;;;;
2019/04/28 00:28:16;;;;;;;2.1;1.6;;;;;;;5.95;70.80859;95431.81;;;;
2019/04/28 00:29:17;;;;;;;2.1;1.6;;;;;;;5.95;70.80859;95431.81;;;;
2019/04/28 00:30:18;;;;;;;2.1;1.6;;;;;;;5.95;70.80859;95431.81;;;;
2019/04/28 00:31:19;;;;;;;2.1;1.6;;;;;;;5.95;70.80859;95431.81;;;;
2019/04/28 00:32:20;;;;;;;2.1;1.6;;;;;;;5.95;70.80859;95431.81;;;;
2019/04/28 00:33:21;;;;;;;2.1;1.6;;;;;;;5.95;70.80859;95431.81;;;;
2019/04/28 00:34:22;;;;;;;2.1;1.6;;;;;;;5.95;70.80859;95431.81;;;;
2019/04/28 00:35:23;;;;;;;2.1;1.6;;;;;;;5.95;70.80859;95431.81;;;;
2019/04/28 00:36:25;;;;;;;2.1;1.6;;;;;;;5.95;70.80859;95431.81;;;;
2019/04/28 00:37:29;;;;;;;2.1;1.6;;;;;;;5.95;70.80859;95431.81;;;;
2019/04/28 00:38:30;;;;;;;2.1;1.45;;;;;;;5.7;70.7998;95422.16;;;;
2019/04/28 00:39:31;;;;;;;2.1;1.45;;;;;;;5.7;70.7998;95422.16;;;;
2019/04/28 00:40:32;;;;;;;2.1;1.45;;;;;;;5.7;70.7998;95422.16;;;;
2019/04/28 00:41:33;;;;;;;2.1;1.45;;;;;;;5.7;70.7998;95422.16;;;;
2019/04/28 00:42:34;;;;;;;2.1;1.45;;;;;;;5.7;70.7998;95422.16;;;;
2019/04/28 00:43:35;;;;;;;2.1;1.45;;;;;;;5.7;70.7998;95422.16;;;;
2019/04/28 00:44:37;;;;;;;2.1;1.45;;;;;;;5.7;70.7998;95422.16;;;;
2019/04/28 00:45:38;;;;;;;2.1;1.45;;;;;;;5.7;70.7998;95422.16;;;;
2019/04/28 00:46:39;;;;;;;2.1;1.45;;;;;;;5.7;70.7998;95422.16;;;;
2019/04/28 00:47:40;;;;;;;2.1;1.45;;;;;;;5.7;70.7998;95422.16;;;;
2019/04/28 00:48:41;;;;;;;3.199999;1.8;;;;;;;5.38;71.21484;95436.66;;;;
2019/04/28 00:49:45;;;;;;;3.199999;1.8;;;;;;;5.38;71.21484;95436.66;;;;
2019/04/28 00:50:46;;;;;;;3.199999;1.8;;;;;;;5.38;71.21484;95436.66;;;;
2019/04/28 00:51:47;;;;;;;3.199999;1.8;;;;;;;5.38;71.21484;95436.66;;;;
2019/04/28 00:52:48;;;;;;;3.199999;1.8;;;;;;;5.38;71.21484;95436.66;;;;
2019/04/28 00:53:49;;;;;;;3.199999;1.8;;;;;;;5.38;71.21484;95436.66;;;;
2019/04/28 00:54:51;;;;;;;3.199999;1.8;;;;;;;5.38;71.21484;95436.66;;;;
2019/04/28 00:55:52;;;;;;;3.199999;1.8;;;;;;;5.38;71.21484;95436.66;;;;
2019/04/28 00:56:53;;;;;;;3.199999;1.8;;;;;;;5.38;71.21484;95436.66;;;;
2019/04/28 00:57:54;;;;;;;3.199999;1.8;;;;;;;5.38;71.21484;95436.66;;;;
2019/04/28 00:58:55;;;;;;;2.4;2;;;;;;;5.24;71.42383;95450.51;;;;
2019/04/28 00:59:56;;;;;;;2.4;2;;;;;;;5.24;71.42383;95450.51;;;;
2019/04/28 01:01:02;;;;;;;2.4;2;;;;;;;5.24;71.42383;95450.51;;;;
2019/04/28 01:02:12;;;;;;;2.4;2;;;;;;;5.24;71.42383;95450.51;;;;
2019/04/28 01:03:14;;;;;;;2.4;2;;;;;;;5.24;71.42383;95450.51;;;;
2019/04/28 01:04:15;;;;;;;2.4;2;;;;;;;5.24;71.42383;95450.51;;;;
2019/04/28 01:05:16;;;;;;;2.4;2;;;;;;;5.24;71.42383;95450.51;;;;
2019/04/28 01:06:17;;;;;;;2.4;2;;;;;;;5.24;71.42383;95450.51;;;;
2019/04/28 01:07:19;;;;;;;2.4;2;;;;;;;5.24;71.42383;95450.51;;;;
2019/04/28 01:08:20;;;;;;;2.4;2;;;;;;;5.24;71.42383;95450.51;;;;
2019/04/28 01:09:21;;;;;;;2.25;2;;;;;;;5.27;71.41797;95468.84;;;;
2019/04/28 01:10:23;;;;;;;2.25;2;;;;;;;5.27;71.41797;95468.84;;;;
2019/04/28 01:11:24;;;;;;;2.25;2;;;;;;;5.27;71.41797;95468.84;;;;
2019/04/28 01:12:25;;;;;;;2.25;2;;;;;;;5.27;71.41797;95468.84;;;;
2019/04/28 01:13:26;;;;;;;2.25;2;;;;;;;5.27;71.41797;95468.84;;;;
2019/04/28 01:14:27;;;;;;;2.25;2;;;;;;;5.27;71.41797;95468.84;;;;
2019/04/28 01:15:45;;;;;;;2.25;2;;;;;;;5.27;71.41797;95468.84;;;;
2019/04/28 01:16:54;;;;;;;2.25;2;;;;;;;5.27;71.41797;95468.84;;;;
2019/04/28 01:18:04;;;;;;;2.25;2;;;;;;;5.27;71.41797;95468.84;;;;
2019/04/28 01:19:10;;;;;;;2.25;2;;;;;;;5.27;71.41797;95468.84;;;;
2019/04/28 01:20:12;;;;;;;3.35;1.8;;;;;;;5.46;71.375;95477.17;;;;
2019/04/28 01:21:13;;;;;;;3.35;1.8;;;;;;;5.46;71.375;95477.17;;;;
2019/04/28 01:22:15;;;;;;;3.35;1.8;;;;;;;5.46;71.375;95477.17;;;;
2019/04/28 01:23:17;;;;;;;3.35;1.8;;;;;;;5.46;71.375;95477.17;;;;
2019/04/28 01:24:18;;;;;;;3.35;1.8;;;;;;;5.46;71.375;95477.17;;;;
2019/04/28 01:25:20;;;;;;;3.35;1.8;;;;;;;5.46;71.375;95477.17;;;;
2019/04/28 01:26:21;;;;;;;3.35;1.8;;;;;;;5.46;71.375;95477.17;;;;
2019/04/28 01:27:46;;;;;;;3.35;1.8;;;;;;;5.46;71.375;95477.17;;;;
2019/04/28 01:28:48;;;;;;;3.35;1.8;;;;;;;5.46;71.375;95477.17;;;;
2019/04/28 01:29:49;;;;;;;3.35;1.8;;;;;;;5.46;71.375;95477.17;;;;
2019/04/28 01:31:00;;;;;;;2.7;2.1;;;;;;;5.57;71.53125;95475.17;;;;
2019/04/28 01:32:10;;;;;;;2.7;2.1;;;;;;;5.57;71.53125;95475.17;;;;
2019/04/28 01:33:26;;;;;;;2.7;2.1;;;;;;;5.57;71.53125;95475.17;;;;
2019/04/28 01:34:27;;;;;;;2.7;2.1;;;;;;;5.57;71.53125;95475.17;;;;
2019/04/28 01:35:28;;;;;;;2.7;2.1;;;;;;;5.57;71.53125;95475.17;;;;
2019/04/28 01:36:29;;;;;;;2.7;2.1;;;;;;;5.57;71.53125;95475.17;;;;
2019/04/28 01:37:31;;;;;;;2.7;2.1;;;;;;;5.57;71.53125;95475.17;;;;
2019/04/28 01:38:32;;;;;;;2.7;2.1;;;;;;;5.57;71.53125;95475.17;;;;
2019/04/28 01:39:33;;;;;;;2.7;2.1;;;;;;;5.57;71.53125;95475.17;;;;
2019/04/28 01:40:34;;;;;;;2.7;2.1;;;;;;;5.57;71.53125;95475.17;;;;
2019/04/28 01:41:35;;;;;;;2.6;1.8;;;;;;;5.74;71.33594;95475.23;;;;
2019/04/28 01:42:36;;;;;;;2.6;1.8;;;;;;;5.74;71.33594;95475.23;;;;
2019/04/28 01:43:37;;;;;;;2.6;1.8;;;;;;;5.74;71.33594;95475.23;;;;
2019/04/28 01:44:38;;;;;;;2.6;1.8;;;;;;;5.74;71.33594;95475.23;;;;
2019/04/28 01:45:39;;;;;;;2.6;1.8;;;;;;;5.74;71.33594;95475.23;;;;
2019/04/28 01:46:40;;;;;;;2.6;1.8;;;;;;;5.74;71.33594;95475.23;;;;
2019/04/28 01:47:42;;;;;;;2.6;1.8;;;;;;;5.74;71.33594;95475.23;;;;
2019/04/28 01:48:43;;;;;;;2.6;1.8;;;;;;;5.74;71.33594;95475.23;;;;
2019/04/28 01:49:44;;;;;;;2.6;1.8;;;;;;;5.74;71.33594;95475.23;;;;
2019/04/28 01:50:45;;;;;;;2.6;1.8;;;;;;;5.74;71.33594;95475.23;;;;
2019/04/28 01:51:51;;;;;;;2.6;1.8;;;;;;;5.74;71.33594;95475.23;;;;
2019/04/28 01:52:55;;;;;;;1.8;1.6;;;;;;;5.71;71.55371;95477.36;;;;
2019/04/28 01:53:56;;;;;;;1.8;1.6;;;;;;;5.71;71.55371;95477.36;;;;
2019/04/28 01:54:57;;;;;;;1.8;1.6;;;;;;;5.71;71.55371;95477.36;;;;
2019/04/28 01:55:58;;;;;;;1.8;1.6;;;;;;;5.71;71.55371;95477.36;;;;
2019/04/28 01:56:59;;;;;;;1.8;1.6;;;;;;;5.71;71.55371;95477.36;;;;
2019/04/28 01:58:00;;;;;;;1.8;1.6;;;;;;;5.71;71.55371;95477.36;;;;
2019/04/28 01:59:01;;;;;;;1.8;1.6;;;;;;;5.71;71.55371;95477.36;;;;
2019/04/28 02:00:02;;;;;;;1.8;1.6;;;;;;;5.71;71.55371;95477.36;;;;
2019/04/28 02:01:04;;;;;;;1.8;1.6;;;;;;;5.71;71.55371;95477.36;;;;
2019/04/28 02:02:05;;;;;;;1.8;1.6;;;;;;;5.71;71.55371;95477.36;;;;
2019/04/28 02:03:06;;;;;;;2.700001;1.7;;;;;;;5.71;71.81836;95482.31;;;;
2019/04/28 02:04:07;;;;;;;2.700001;1.7;;;;;;;5.71;71.81836;95482.31;;;;
2019/04/28 02:05:08;;;;;;;2.700001;1.7;;;;;;;5.71;71.81836;95482.31;;;;
2019/04/28 02:06:09;;;;;;;2.700001;1.7;;;;;;;5.71;71.81836;95482.31;;;;
2019/04/28 02:07:10;;;;;;;2.700001;1.7;;;;;;;5.71;71.81836;95482.31;;;;
2019/04/28 02:08:12;;;;;;;2.700001;1.7;;;;;;;5.71;71.81836;95482.31;;;;
2019/04/28 02:09:13;;;;;;;2.700001;1.7;;;;;;;5.71;71.81836;95482.31;;;;
2019/04/28 02:10:14;;;;;;;2.700001;1.7;;;;;;;5.71;71.81836;95482.31;;;;
2019/04/28 02:11:15;;;;;;;2.700001;1.7;;;;;;;5.71;71.81836;95482.31;;;;
2019/04/28 02:12:16;;;;;;;2.700001;1.7;;;;;;;5.71;71.81836;95482.31;;;;
2019/04/28 02:13:17;;;;;;;1.7;1.3;;;;;;;5.58;72.13477;95487.61;;;;
2019/04/28 02:14:18;;;;;;;1.7;1.3;;;;;;;5.58;72.13477;95487.61;;;;
2019/04/28 02:15:19;;;;;;;1.7;1.3;;;;;;;5.58;72.13477;95487.61;;;;
2019/04/28 02:16:21;;;;;;;1.7;1.3;;;;;;;5.58;72.13477;95487.61;;;;
2019/04/28 02:17:22;;;;;;;1.7;1.3;;;;;;;5.58;72.13477;95487.61;;;;
2019/04/28 02:18:23;;;;;;;1.7;1.3;;;;;;;5.58;72.13477;95487.61;;;;
2019/04/28 02:19:24;;;;;;;1.7;1.3;;;;;;;5.58;72.13477;95487.61;;;;
2019/04/28 02:20:25;;;;;;;1.7;1.3;;;;;;;5.58;72.13477;95487.61;;;;
2019/04/28 02:21:49;;;;;;;1.7;1.3;;;;;;;5.58;72.13477;95487.61;;;;
2019/04/28 02:22:54;;;;;;;1.7;1.3;;;;;;;5.58;72.13477;95487.61;;;;
2019/04/28 02:24:26;;;;;;;1.45;1.35;;;;;;;5.55;72.19336;95490.19;;;;
2019/04/28 02:25:27;;;;;;;1.45;1.35;;;;;;;5.55;72.19336;95490.19;;;;
2019/04/28 02:26:28;;;;;;;1.45;1.35;;;;;;;5.55;72.19336;95490.19;;;;
2019/04/28 02:27:29;;;;;;;1.45;1.35;;;;;;;5.55;72.19336;95490.19;;;;
2019/04/28 02:28:30;;;;;;;1.45;1.35;;;;;;;5.55;72.19336;95490.19;;;;
2019/04/28 02:29:32;;;;;;;1.45;1.35;;;;;;;5.55;72.19336;95490.19;;;;
2019/04/28 02:30:33;;;;;;;1.45;1.35;;;;;;;5.55;72.19336;95490.19;;;;
2019/04/28 02:31:34;;;;;;;1.45;1.35;;;;;;;5.55;72.19336;95490.19;;;;
2019/04/28 02:32:35;;;;;;;1.45;1.35;;;;;;;5.55;72.19336;95490.19;;;;
2019/04/28 02:33:36;;;;;;;1.45;1.35;;;;;;;5.55;72.19336;95490.19;;;;
2019/04/28 02:34:37;;;;;;;1.25;1.15;;;;;;;5.47;72.0752;95483.65;;;;
2019/04/28 02:35:39;;;;;;;1.25;1.15;;;;;;;5.47;72.0752;95483.65;;;;
2019/04/28 02:36:40;;;;;;;1.25;1.15;;;;;;;5.47;72.0752;95483.65;;;;
2019/04/28 02:37:41;;;;;;;1.25;1.15;;;;;;;5.47;72.0752;95483.65;;;;
2019/04/28 02:38:42;;;;;;;1.25;1.15;;;;;;;5.47;72.0752;95483.65;;;;
2019/04/28 02:39:43;;;;;;;1.25;1.15;;;;;;;5.47;72.0752;95483.65;;;;
2019/04/28 02:40:44;;;;;;;1.25;1.15;;;;;;;5.47;72.0752;95483.65;;;;
2019/04/28 02:41:45;;;;;;;1.25;1.15;;;;;;;5.47;72.0752;95483.65;;;;
2019/04/28 02:42:46;;;;;;;1.25;1.15;;;;;;;5.47;72.0752;95483.65;;;;
2019/04/28 02:43:48;;;;;;;1.25;1.15;;;;;;;5.47;72.0752;95483.65;;;;
2019/04/28 02:44:49;;;;;;;1.25;1.15;;;;;;;5.47;72.0752;95483.65;;;;
2019/04/28 02:45:50;;;;;;;1.1;1.05;;;;;;;5.43;72.15332;95497.53;;;;
2019/04/28 02:46:51;;;;;;;1.1;1.05;;;;;;;5.43;72.15332;95497.53;;;;
2019/04/28 02:47:57;;;;;;;1.1;1.05;;;;;;;5.43;72.15332;95497.53;;;;
2019/04/28 02:48:58;;;;;;;1.1;1.05;;;;;;;5.43;72.15332;95497.53;;;;
2019/04/28 02:50:13;;;;;;;1.1;1.05;;;;;;;5.43;72.15332;95497.53;;;;
2019/04/28 02:51:21;;;;;;;1.1;1.05;;;;;;;5.43;72.15332;95497.53;;;;
2019/04/28 02:53:28;;;;;;;1.1;1.05;;;;;;;5.43;72.15332;95497.53;;;;
2019/04/28 02:54:29;;;;;;;1.1;1.05;;;;;;;5.43;72.15332;95497.53;;;;
2019/04/28 02:55:30;;;;;;;1.6;1;;;;;;;5.32;72.34668;95490.09;;;;
2019/04/28 02:56:31;;;;;;;1.6;1;;;;;;;5.32;72.34668;95490.09;;;;
2019/04/28 02:57:32;;;;;;;1.6;1;;;;;;;5.32;72.34668;95490.09;;;;
2019/04/28 02:58:33;;;;;;;1.6;1;;;;;;;5.32;72.34668;95490.09;;;;
2019/04/28 02:59:34;;;;;;;1.6;1;;;;;;;5.32;72.34668;95490.09;;;;
2019/04/28 03:00:35;;;;;;;1.6;1;;;;;;;5.32;72.34668;95490.09;;;;
2019/04/28 03:01:37;;;;;;;1.6;1;;;;;;;5.32;72.34668;95490.09;;;;
2019/04/28 03:02:38;;;;;;;1.6;1;;;;;;;5.32;72.34668;95490.09;;;;
2019/04/28 03:03:39;;;;;;;1.6;1;;;;;;;5.32;72.34668;95490.09;;;;
2019/04/28 03:04:40;;;;;;;1.6;1;;;;;;;5.32;72.34668;95490.09;;;;
2019/04/28 03:05:41;;;;;;;1.6;1;;;;;;;5.32;72.34668;95490.09;;;;
2019/04/28 03:06:42;;;;;;;2;1.2;;;;;;;5.27;72.6875;95491.72;;;;
2019/04/28 03:07:43;;;;;;;2;1.2;;;;;;;5.27;72.6875;95491.72;;;;
2019/04/28 03:08:44;;;;;;;2;1.2;;;;;;;5.27;72.6875;95491.72;;;;
2019/04/28 03:09:45;;;;;;;2;1.2;;;;;;;5.27;72.6875;95491.72;;;;
2019/04/28 03:10:46;;;;;;;2;1.2;;;;;;;5.27;72.6875;95491.72;;;;
2019/04/28 03:11:47;;;;;;;2;1.2;;;;;;;5.27;72.6875;95491.72;;;;
2019/04/28 03:12:48;;;;;;;2;1.2;;;;;;;5.27;72.6875;95491.72;;;;
2019/04/28 03:13:49;;;;;;;2;1.2;;;;;;;5.27;72.6875;95491.72;;;;
2019/04/28 03:14:50;;;;;;;2;1.2;;;;;;;5.27;72.6875;95491.72;;;;
2019/04/28 03:15:51;;;;;;;2;1.2;;;;;;;5.27;72.6875;95491.72;;;;
2019/04/28 03:16:52;;;;;;;2;1.2;;;;;;;5.27;72.6875;95491.72;;;;
2019/04/28 03:17:54;;;;;;;2;1.2;;;;;;;5.27;72.6875;95491.72;;;;
2019/04/28 03:18:55;;;;;;;2;1.2;;;;;;;5.27;72.6875;95491.72;;;;
2019/04/28 03:19:56;;;;;;;2;1.2;;;;;;;5.27;72.6875;95491.72;;;;
2019/04/28 03:20:57;;;;;;;2;1.2;;;;;;;5.27;72.6875;95491.72;;;;
2019/04/28 03:21:58;;;;;;;2;1.2;;;;;;;5.27;72.6875;95491.72;;;;
2019/04/28 03:22:59;;;;;;;2;1.2;;;;;;;5.27;72.6875;95491.72;;;;
2019/04/28 03:24:00;;;;;;;2;1.2;;;;;;;5.27;72.6875;95491.72;;;;
2019/04/28 03:25:11;;;;;;;2;1.2;;;;;;;5.27;72.6875;95491.72;;;;
2019/04/28 03:26:25;;;;;;;2;1.2;;;;;;;5.27;72.6875;95491.72;;;;
2019/04/28 03:27:38;;;;;;;2;1.2;;;;;;;5.27;72.6875;95491.72;;;;
2019/04/28 03:28:44;;;;;;;2;1.2;;;;;;;5.27;72.6875;95491.72;;;;
2019/04/28 03:29:50;;;;;;;2;1.2;;;;;;;5.27;72.6875;95491.72;;;;
2019/04/28 03:35:59;;;;;;;2;1.2;;;;;;;5.27;72.6875;95491.72;;;;
2019/04/28 03:37:00;;;;;;;2;1.2;;;;;;;5.27;72.6875;95491.72;;;;
2019/04/28 03:38:01;;;;;;;1.55;1.2;;;;;;;4.76;72.38867;95484.5;;;;
2019/04/28 03:39:03;;;;;;;1.55;1.2;;;;;;;4.76;72.38867;95484.5;;;;
2019/04/28 03:40:04;;;;;;;1.55;1.2;;;;;;;4.76;72.38867;95484.5;;;;
2019/04/28 03:41:05;;;;;;;1.55;1.2;;;;;;;4.76;72.38867;95484.5;;;;
2019/04/28 03:42:06;;;;;;;1.55;1.2;;;;;;;4.76;72.38867;95484.5;;;;
2019/04/28 03:43:08;;;;;;;1.55;1.2;;;;;;;4.76;72.38867;95484.5;;;;
2019/04/28 03:44:09;;;;;;;1.55;1.2;;;;;;;4.76;72.38867;95484.5;;;;
2019/04/28 03:45:18;;;;;;;1.55;1.2;;;;;;;4.76;72.38867;95484.5;;;;
2019/04/28 03:46:22;;;;;;;1.55;1.2;;;;;;;4.76;72.38867;95484.5;;;;
2019/04/28 03:47:23;;;;;;;1.55;1.2;;;;;;;4.76;72.38867;95484.5;;;;
2019/04/28 03:48:24;;;;;;;2.35;1.3;;;;;;;4.56;72.4502;95486.21;;;;
2019/04/28 03:49:33;;;;;;;2.35;1.3;;;;;;;4.56;72.4502;95486.21;;;;
2019/04/28 03:50:34;;;;;;;2.35;1.3;;;;;;;4.56;72.4502;95486.21;;;;
2019/04/28 03:51:35;;;;;;;2.35;1.3;;;;;;;4.56;72.4502;95486.21;;;;
2019/04/28 03:52:36;;;;;;;2.35;1.3;;;;;;;4.56;72.4502;95486.21;;;;
2019/04/28 03:53:37;;;;;;;2.35;1.3;;;;;;;4.56;72.4502;95486.21;;;;
2019/04/28 03:54:38;;;;;;;2.35;1.3;;;;;;;4.56;72.4502;95486.21;;;;
2019/04/28 03:55:39;;;;;;;2.35;1.3;;;;;;;4.56;72.4502;95486.21;;;;
2019/04/28 03:56:40;;;;;;;2.35;1.3;;;;;;;4.56;72.4502;95486.21;;;;
2019/04/28 03:57:41;;;;;;;2.35;1.3;;;;;;;4.56;72.4502;95486.21;;;;
2019/04/28 03:58:42;;;;;;;2.35;1.3;;;;;;;4.56;72.4502;95486.21;;;;
2019/04/28 03:59:43;;;;;;;2.25;1.4;;;;;;;4.3;72.56641;95459.28;;;;
2019/04/28 04:00:44;;;;;;;2.25;1.4;;;;;;;4.3;72.56641;95459.28;;;;
2019/04/28 04:01:46;;;;;;;2.25;1.4;;;;;;;4.3;72.56641;95459.28;;;;
2019/04/28 04:02:47;;;;;;;2.25;1.4;;;;;;;4.3;72.56641;95459.28;;;;
2019/04/28 04:03:48;;;;;;;2.25;1.4;;;;;;;4.3;72.56641;95459.28;;;;
2019/04/28 04:04:49;;;;;;;2.25;1.4;;;;;;;4.3;72.56641;95459.28;;;;
2019/04/28 04:05:50;;;;;;;2.25;1.4;;;;;;;4.3;72.56641;95459.28;;;;
2019/04/28 04:06:51;;;;;;;2.25;1.4;;;;;;;4.3;72.56641;95459.28;;;;
2019/04/28 04:07:52;;;;;;;2.25;1.4;;;;;;;4.3;72.56641;95459.28;;;;
2019/04/28 04:08:53;;;;;;;2.25;1.4;;;;;;;4.3;72.56641;95459.28;;;;
2019/04/28 04:15:11;;;;;;;2.05;1.35;;;;;;;4.13;72.69727;95460.47;;;;
2019/04/28 04:16:24;;;;;;;2.05;1.35;;;;;;;4.13;72.69727;95460.47;;;;
2019/04/28 04:17:34;;;;;;;2.05;1.35;;;;;;;4.13;72.69727;95460.47;;;;
2019/04/28 04:18:41;;;;;;;2.05;1.35;;;;;;;4.13;72.69727;95460.47;;;;
2019/04/28 04:19:42;;;;;;;2.05;1.35;;;;;;;4.13;72.69727;95460.47;;;;
2019/04/28 04:20:43;;;;;;;2.9;1.2;;;;;;;3.91;72.87012;95468.16;;;;
2019/04/28 04:21:45;;;;;;;2.9;1.2;;;;;;;3.91;72.87012;95468.16;;;;
2019/04/28 04:22:46;;;;;;;2.9;1.2;;;;;;;3.91;72.87012;95468.16;;;;
2019/04/28 04:23:47;;;;;;;2.9;1.2;;;;;;;3.91;72.87012;95468.16;;;;
2019/04/28 04:24:48;;;;;;;2.9;1.2;;;;;;;3.91;72.87012;95468.16;;;;
2019/04/28 04:25:49;;;;;;;2.9;1.2;;;;;;;3.91;72.87012;95468.16;;;;
2019/04/28 04:26:50;;;;;;;2.9;1.2;;;;;;;3.91;72.87012;95468.16;;;;
2019/04/28 04:27:51;;;;;;;2.9;1.2;;;;;;;3.91;72.87012;95468.16;;;;
2019/04/28 04:28:52;;;;;;;2.9;1.2;;;;;;;3.91;72.87012;95468.16;;;;
2019/04/28 04:29:53;;;;;;;2.9;1.2;;;;;;;3.91;72.87012;95468.16;;;;
2019/04/28 04:30:54;;;;;;;2.6;1.4;;;;;;;4.01;73.02148;95474.11;;;;
2019/04/28 04:31:55;;;;;;;2.6;1.4;;;;;;;4.01;73.02148;95474.11;;;;
2019/04/28 04:32:56;;;;;;;2.6;1.4;;;;;;;4.01;73.02148;95474.11;;;;
2019/04/28 04:33:57;;;;;;;2.6;1.4;;;;;;;4.01;73.02148;95474.11;;;;
2019/04/28 04:34:58;;;;;;;2.6;1.4;;;;;;;4.01;73.02148;95474.11;;;;
2019/04/28 04:35:59;;;;;;;2.6;1.4;;;;;;;4.01;73.02148;95474.11;;;;
2019/04/28 04:37:01;;;;;;;2.6;1.4;;;;;;;4.01;73.02148;95474.11;;;;
2019/04/28 04:38:02;;;;;;;2.6;1.4;;;;;;;4.01;73.02148;95474.11;;;;
2019/04/28 04:39:05;;;;;;;2.6;1.4;;;;;;;4.01;73.02148;95474.11;;;;
2019/04/28 04:40:06;;;;;;;2.6;1.4;;;;;;;4.01;73.02148;95474.11;;;;
2019/04/28 04:41:07;;;;;;;2.6;1.4;;;;;;;4.01;73.02148;95474.11;;;;
2019/04/28 04:42:08;;;;;;;3.75;1.4;;;;;;;4.23;72.65918;95466.8;;;;
2019/04/28 04:43:09;;;;;;;3.75;1.4;;;;;;;4.23;72.65918;95466.8;;;;
2019/04/28 04:44:10;;;;;;;3.75;1.4;;;;;;;4.23;72.65918;95466.8;;;;
2019/04/28 04:45:12;;;;;;;3.75;1.4;;;;;;;4.23;72.65918;95466.8;;;;
2019/04/28 04:46:17;;;;;;;3.75;1.4;;;;;;;4.23;72.65918;95466.8;;;;
2019/04/28 04:47:18;;;;;;;3.75;1.4;;;;;;;4.23;72.65918;95466.8;;;;
2019/04/28 04:48:19;;;;;;;3.75;1.4;;;;;;;4.23;72.65918;95466.8;;;;
2019/04/28 04:49:20;;;;;;;3.75;1.4;;;;;;;4.23;72.65918;95466.8;;;;
2019/04/28 04:50:21;;;;;;;3.75;1.4;;;;;;;4.23;72.65918;95466.8;;;;
2019/04/28 04:51:22;;;;;;;3.75;1.4;;;;;;;4.23;72.65918;95466.8;;;;
2019/04/28 04:52:23;;;;;;;1.95;1.2;;;;;;;4.49;72.4502;95460.35;;;;
2019/04/28 04:53:24;;;;;;;1.95;1.2;;;;;;;4.49;72.4502;95460.35;;;;
2019/04/28 04:54:26;;;;;;;1.95;1.2;;;;;;;4.49;72.4502;95460.35;;;;
2019/04/28 04:55:27;;;;;;;1.95;1.2;;;;;;;4.49;72.4502;95460.35;;;;
2019/04/28 04:56:28;;;;;;;1.95;1.2;;;;;;;4.49;72.4502;95460.35;;;;
2019/04/28 04:57:29;;;;;;;1.95;1.2;;;;;;;4.49;72.4502;95460.35;;;;
2019/04/28 04:58:30;;;;;;;1.95;1.2;;;;;;;4.49;72.4502;95460.35;;;;
2019/04/28 04:59:32;;;;;;;1.95;1.2;;;;;;;4.49;72.4502;95460.35;;;;
2019/04/28 05:00:43;;;;;;;1.95;1.2;;;;;;;4.49;72.4502;95460.35;;;;
2019/04/28 05:03:10;;;;;;;1.95;1.2;;;;;;;4.49;72.4502;95460.35;;;;
2019/04/28 05:04:28;;;;;;;3.65;1.45;;;;;;;4.64;72.02148;95448.22;;;;
2019/04/28 05:05:36;;;;;;;3.65;1.45;;;;;;;4.64;72.02148;95448.22;;;;
2019/04/28 05:06:37;;;;;;;3.65;1.45;;;;;;;4.64;72.02148;95448.22;;;;
2019/04/28 05:07:38;;;;;;;3.65;1.45;;;;;;;4.64;72.02148;95448.22;;;;
2019/04/28 05:08:39;;;;;;;3.65;1.45;;;;;;;4.64;72.02148;95448.22;;;;
2019/04/28 05:09:40;;;;;;;3.65;1.45;;;;;;;4.64;72.02148;95448.22;;;;
2019/04/28 05:10:41;;;;;;;3.65;1.45;;;;;;;4.64;72.02148;95448.22;;;;
2019/04/28 05:11:42;;;;;;;3.65;1.45;;;;;;;4.64;72.02148;95448.22;;;;
2019/04/28 05:12:43;;;;;;;3.65;1.45;;;;;;;4.64;72.02148;95448.22;;;;
2019/04/28 05:13:44;;;;;;;3.15;1.6;;;;;;;5.04;71.72852;95451.42;;;;
2019/04/28 05:14:46;;;;;;;3.15;1.6;;;;;;;5.04;71.72852;95451.42;;;;
2019/04/28 05:15:47;;;;;;;3.15;1.6;;;;;;;5.04;71.72852;95451.42;;;;
2019/04/28 05:16:48;;;;;;;3.15;1.6;;;;;;;5.04;71.72852;95451.42;;;;
2019/04/28 05:17:49;;;;;;;3.15;1.6;;;;;;;5.04;71.72852;95451.42;;;;
2019/04/28 05:18:50;;;;;;;3.15;1.6;;;;;;;5.04;71.72852;95451.42;;;;
2019/04/28 05:19:51;;;;;;;3.15;1.6;;;;;;;5.04;71.72852;95451.42;;;;
2019/04/28 05:20:52;;;;;;;3.15;1.6;;;;;;;5.04;71.72852;95451.42;;;;
2019/04/28 05:21:53;;;;;;;3.15;1.6;;;;;;;5.04;71.72852;95451.42;;;;
2019/04/28 05:23:02;;;;;;;3.15;1.6;;;;;;;5.04;71.72852;95451.42;;;;
2019/04/28 05:24:16;;;;;;;2.750001;1.55;;;;;;;5.57;71.08691;95443.53;;;;
2019/04/28 05:25:24;;;;;;;2.750001;1.55;;;;;;;5.57;71.08691;95443.53;;;;
2019/04/28 05:26:26;;;;;;;2.750001;1.55;;;;;;;5.57;71.08691;95443.53;;;;
2019/04/28 05:27:27;;;;;;;2.750001;1.55;;;;;;;5.57;71.08691;95443.53;;;;
2019/04/28 05:28:28;;;;;;;2.750001;1.55;;;;;;;5.57;71.08691;95443.53;;;;
2019/04/28 05:29:29;;;;;;;2.750001;1.55;;;;;;;5.57;71.08691;95443.53;;;;
2019/04/28 05:30:30;;;;;;;2.750001;1.55;;;;;;;5.57;71.08691;95443.53;;;;
2019/04/28 05:31:31;;;;;;;2.750001;1.55;;;;;;;5.57;71.08691;95443.53;;;;
2019/04/28 05:32:32;;;;;;;2.750001;1.55;;;;;;;5.57;71.08691;95443.53;;;;
2019/04/28 05:33:33;;;;;;;2.750001;1.55;;;;;;;5.57;71.08691;95443.53;;;;
2019/04/28 05:34:34;;;;;;;3.65;1.4;;;;;;;6.04;70.70703;95450.69;;;;
2019/04/28 05:35:35;;;;;;;3.65;1.4;;;;;;;6.04;70.70703;95450.69;;;;
2019/04/28 05:36:36;;;;;;;3.65;1.4;;;;;;;6.04;70.70703;95450.69;;;;
2019/04/28 05:37:38;;;;;;;3.65;1.4;;;;;;;6.04;70.70703;95450.69;;;;
2019/04/28 05:38:39;;;;;;;3.65;1.4;;;;;;;6.04;70.70703;95450.69;;;;
2019/04/28 05:39:40;;;;;;;3.65;1.4;;;;;;;6.04;70.70703;95450.69;;;;
2019/04/28 05:40:41;;;;;;;3.65;1.4;;;;;;;6.04;70.70703;95450.69;;;;
2019/04/28 05:41:42;;;;;;;3.65;1.4;;;;;;;6.04;70.70703;95450.69;;;;
2019/04/28 05:42:57;;;;;;;3.65;1.4;;;;;;;6.04;70.70703;95450.69;;;;
2019/04/28 05:43:58;;;;;;;3.65;1.4;;;;;;;6.04;70.70703;95450.69;;;;
2019/04/28 05:44:59;;;;;;;3.05;1.4;;;;;;;6.22;70.48242;95447.31;;;;
2019/04/28 05:46:00;;;;;;;3.05;1.4;;;;;;;6.22;70.48242;95447.31;;;;
2019/04/28 05:47:02;;;;;;;3.05;1.4;;;;;;;6.22;70.48242;95447.31;;;;
2019/04/28 05:48:03;;;;;;;3.05;1.4;;;;;;;6.22;70.48242;95447.31;;;;
2019/04/28 05:54:20;;;;;;;3.05;1.4;;;;;;;6.22;70.48242;95447.31;;;;
2019/04/28 05:55:27;;;;;;;3.05;1.4;;;;;;;6.22;70.48242;95447.31;;;;
2019/04/28 05:56:34;;;;;;;5.6;1.5;;;;;;;6.86;69.68555;95450.06;;;;
2019/04/28 05:57:41;;;;;;;5.6;1.5;;;;;;;6.86;69.68555;95450.06;;;;
2019/04/28 05:58:53;;;;;;;5.6;1.5;;;;;;;6.86;69.68555;95450.06;;;;
2019/04/28 06:00:05;;;;;;;5.6;1.5;;;;;;;6.86;69.68555;95450.06;;;;
2019/04/28 06:01:14;;;;;;;5.6;1.5;;;;;;;6.86;69.68555;95450.06;;;;
2019/04/28 06:02:20;;;;;;;5.6;1.5;;;;;;;6.86;69.68555;95450.06;;;;
2019/04/28 06:03:21;;;;;;;5.6;1.5;;;;;;;6.86;69.68555;95450.06;;;;
2019/04/28 06:04:26;;;;;;;5.6;1.5;;;;;;;6.86;69.68555;95450.06;;;;
2019/04/28 06:05:27;;;;;;;5.6;1.5;;;;;;;6.86;69.68555;95450.06;;;;
2019/04/28 06:06:32;;;;;;;5.6;1.5;;;;;;;6.86;69.68555;95450.06;;;;
2019/04/28 06:07:41;;;;;;;5.6;1.5;;;;;;;6.86;69.68555;95450.06;;;;
2019/04/28 06:08:50;;;;;;;5.6;1.5;;;;;;;6.86;69.68555;95450.06;;;;
2019/04/28 06:09:52;;;;;;;5.6;1.5;;;;;;;6.86;69.68555;95450.06;;;;
2019/04/28 06:10:53;;;;;;;5.6;1.5;;;;;;;6.86;69.68555;95450.06;;;;
2019/04/28 06:11:54;;;;;;;5.6;1.5;;;;;;;6.86;69.68555;95450.06;;;;
2019/04/28 06:12:55;;;;;;;5.6;1.5;;;;;;;6.86;69.68555;95450.06;;;;
2019/04/28 06:13:56;;;;;;;5.6;1.5;;;;;;;6.86;69.68555;95450.06;;;;
2019/04/28 06:14:58;;;;;;;5.6;1.5;;;;;;;6.86;69.68555;95450.06;;;;
2019/04/28 06:15:59;;;;;;;5.6;1.5;;;;;;;6.86;69.68555;95450.06;;;;
2019/04/28 06:17:00;;;;;;;4.2;1.75;;;;;;;7.4;68.80371;95438.97;;;;
2019/04/28 06:18:01;;;;;;;4.2;1.75;;;;;;;7.4;68.80371;95438.97;;;;
2019/04/28 06:19:02;;;;;;;4.2;1.75;;;;;;;7.4;68.80371;95438.97;;;;
2019/04/28 06:20:03;;;;;;;4.2;1.75;;;;;;;7.4;68.80371;95438.97;;;;
2019/04/28 06:21:04;;;;;;;4.2;1.75;;;;;;;7.4;68.80371;95438.97;;;;
2019/04/28 06:22:05;;;;;;;4.2;1.75;;;;;;;7.4;68.80371;95438.97;;;;
2019/04/28 06:23:06;;;;;;;4.2;1.75;;;;;;;7.4;68.80371;95438.97;;;;
2019/04/28 06:24:07;;;;;;;4.2;1.75;;;;;;;7.4;68.80371;95438.97;;;;
2019/04/28 06:25:08;;;;;;;4.2;1.75;;;;;;;7.4;68.80371;95438.97;;;;